This is the latest recevied weather packets stored in our database for station/object K7D3. If no packets are shown the sender has not sent any weather packets the latest 10 day(s).
| Time | Temp. | Humidity | Pressure | Rain* | Wind** | Luminosity | Snow |
|---|---|---|---|---|---|---|---|
| 1777906128 | 18.33° C | 39% | - | 0 mm | 6.26 m/s, 252° | - | - |
| 1777905649 | 18.33° C | 42% | - | 0 mm | 4.92 m/s, 273° | - | - |
| 1777905171 | 17.22° C | 44% | - | 0 mm | 6.71 m/s, 288° | - | - |
| 1777904689 | 16.67° C | 44% | - | 0 mm | 7.6 m/s, 221° | - | - |
| 1777904210 | 16.67° C | 45% | - | 0 mm | 4.47 m/s, 298° | - | - |
| 1777903731 | 16.11° C | 47% | - | 0 mm | 6.26 m/s, 255° | - | - |
| 1777903249 | 15.56° C | 48% | - | 0 mm | 4.92 m/s, 248° | - | - |
| 1777902771 | 15° C | 49% | - | 0 mm | 4.47 m/s, 278° | - | - |
| 1777902290 | 14.44° C | 52% | - | 0 mm | 5.36 m/s, 245° | - | - |
| 1777901808 | 15° C | 54% | - | 0 mm | 4.47 m/s, 256° | - | - |
| 1777901329 | 14.44° C | 59% | - | 0 mm | 4.02 m/s, 252° | - | - |
| 1777900851 | 13.89° C | 59% | - | 0 mm | 3.58 m/s, 236° | - | - |
| 1777900369 | 13.33° C | 64% | - | 0 mm | 3.58 m/s, 232° | - | - |
| 1777899890 | 12.78° C | 66% | - | 0 mm | 3.13 m/s, 231° | - | - |
| 1777899411 | 12.78° C | 68% | - | 0 mm | 4.02 m/s, 232° | - | - |
| 1777898929 | 12.22° C | 72% | - | 0 mm | 4.47 m/s, 224° | - | - |
| 1777898450 | 11.67° C | 74% | - | 0 mm | 2.68 m/s, 238° | - | - |
| 1777897971 | 11.11° C | 76% | - | 0 mm | 4.02 m/s, 242° | - | - |
| 1777897489 | 10.56° C | 80% | - | 0 mm | 4.02 m/s, 243° | - | - |
| 1777897010 | 9.44° C | 89% | - | 0 mm | 2.24 m/s, 217° | - | - |
| 1777896531 | 8.89° C | 96% | - | 0 mm | 0 m/s | - | - |
| 1777896044 | 7.78° C | 97% | - | 0 mm | 0 m/s | - | - |
| 1777895565 | 6.11° C | 97% | - | 0 mm | 0 m/s | - | - |
| 1777895086 | 5.56° C | 97% | - | 0 mm | 0 m/s | - | - |
| 1777894603 | 4.44° C | 96% | - | 0 mm | 0 m/s | - | - |
* Rain latest hour (hover to see other rain measurements)
** Current wind speed in m/s (hover to see current wind gust speed)